NDF7TF EGKK-EDDK
Flight info
| Callsign | NDF7TF |
|---|---|
| Flight time | 0h 51m |
| Altitude | 23000 |
| Route | ODVIK2Z ODVIK Y311 DVR L9 KONAN/N0443F330 UL607 SPI T857 DENOV T861 ERUKI DCT |
| Aircraft | A20N/M-SDE2E3FGHIRWXY/LB1 |
Departure
| Time | 2026-04-26 13:45 |
|---|---|
| Airport | London Gatwick Airport (EGKK) |
Arrival
| Time | 2026-04-26 14:37 |
|---|---|
| Airport | Cologne Bonn Airport (EDDK) |
| Time | Latitude | Longitude | Altitude | Speed | Heading |
|---|---|---|---|---|---|
| 2026-04-26 13:18 | 51.15878 | -0.17253 | 214 ft | 0 kts | 348° |
| 2026-04-26 13:33 | 51.15875 | -0.17252 | 215 ft | 1 kts | 348° |
| 2026-04-26 13:34 | 51.15867 | -0.17250 | 214 ft | 1 kts | 348° |
| 2026-04-26 13:34 | 51.15860 | -0.17247 | 208 ft | 1 kts | 348° |
| 2026-04-26 13:34 | 51.15852 | -0.17244 | 215 ft | 1 kts | 348° |
| 2026-04-26 13:34 | 51.15846 | -0.17243 | 215 ft | 2 kts | 348° |
| 2026-04-26 13:35 | 51.15829 | -0.17237 | 208 ft | 2 kts | 348° |
| 2026-04-26 13:35 | 51.15814 | -0.17230 | 211 ft | 2 kts | 324° |
| 2026-04-26 13:35 | 51.15804 | -0.17214 | 211 ft | 2 kts | 269° |
| 2026-04-26 13:35 | 51.15804 | -0.17203 | 208 ft | 0 kts | 256° |
| 2026-04-26 13:37 | 51.15798 | -0.17250 | 214 ft | 9 kts | 257° |
| 2026-04-26 13:37 | 51.15779 | -0.17383 | 207 ft | 15 kts | 258° |
| 2026-04-26 13:38 | 51.15756 | -0.17558 | 207 ft | 18 kts | 258° |
| 2026-04-26 13:38 | 51.15727 | -0.17759 | 208 ft | 20 kts | 257° |
| 2026-04-26 13:38 | 51.15697 | -0.17974 | 206 ft | 20 kts | 257° |
| 2026-04-26 13:38 | 51.15669 | -0.18193 | 207 ft | 17 kts | 258° |
| 2026-04-26 13:39 | 51.15640 | -0.18395 | 204 ft | 18 kts | 257° |
| 2026-04-26 13:39 | 51.15611 | -0.18604 | 208 ft | 21 kts | 257° |
| 2026-04-26 13:39 | 51.15585 | -0.18792 | 208 ft | 11 kts | 258° |
| 2026-04-26 13:39 | 51.15531 | -0.18824 | 216 ft | 11 kts | 172° |
| 2026-04-26 13:40 | 51.15450 | -0.18797 | 209 ft | 13 kts | 167° |
| 2026-04-26 13:40 | 51.15340 | -0.18758 | 208 ft | 20 kts | 167° |
| 2026-04-26 13:40 | 51.15218 | -0.18717 | 209 ft | 14 kts | 168° |
| 2026-04-26 13:40 | 51.15132 | -0.18735 | 210 ft | 15 kts | 240° |
| 2026-04-26 13:41 | 51.15106 | -0.18917 | 208 ft | 20 kts | 258° |
| 2026-04-26 13:41 | 51.15078 | -0.19125 | 205 ft | 21 kts | 258° |
| 2026-04-26 13:41 | 51.15041 | -0.19394 | 213 ft | 28 kts | 257° |
| 2026-04-26 13:41 | 51.15009 | -0.19622 | 209 ft | 21 kts | 257° |
| 2026-04-26 13:42 | 51.14975 | -0.19868 | 205 ft | 19 kts | 257° |
| 2026-04-26 13:42 | 51.14943 | -0.20093 | 204 ft | 22 kts | 257° |
| 2026-04-26 13:42 | 51.14917 | -0.20292 | 204 ft | 15 kts | 257° |
| 2026-04-26 13:42 | 51.14893 | -0.20464 | 207 ft | 18 kts | 257° |
| 2026-04-26 13:43 | 51.14865 | -0.20665 | 204 ft | 20 kts | 257° |
| 2026-04-26 13:43 | 51.14833 | -0.20894 | 205 ft | 22 kts | 257° |
| 2026-04-26 13:43 | 51.14804 | -0.21100 | 208 ft | 16 kts | 256° |
| 2026-04-26 13:43 | 51.14769 | -0.21290 | 209 ft | 16 kts | 257° |
| 2026-04-26 13:44 | 51.14708 | -0.21386 | 216 ft | 16 kts | 162° |
| 2026-04-26 13:44 | 51.14602 | -0.21321 | 210 ft | 13 kts | 159° |
| 2026-04-26 13:44 | 51.14528 | -0.21232 | 213 ft | 15 kts | 117° |
| 2026-04-26 13:44 | 51.14547 | -0.20971 | 211 ft | 56 kts | 77° |
| 2026-04-26 13:45 | 51.14692 | -0.19930 | 210 ft | 133 kts | 78° |
| 2026-04-26 13:45 | 51.14932 | -0.18214 | 458 ft | 171 kts | 77° |
| 2026-04-26 13:45 | 51.15208 | -0.16325 | 1331 ft | 178 kts | 79° |
| 2026-04-26 13:45 | 51.15503 | -0.14378 | 2344 ft | 182 kts | 78° |
| 2026-04-26 13:46 | 51.15803 | -0.12416 | 3206 ft | 186 kts | 79° |
| 2026-04-26 13:46 | 51.16088 | -0.10292 | 3696 ft | 205 kts | 80° |
| 2026-04-26 13:46 | 51.16384 | -0.07958 | 4147 ft | 230 kts | 80° |
| 2026-04-26 13:46 | 51.16715 | -0.05331 | 4693 ft | 253 kts | 80° |
| 2026-04-26 13:47 | 51.16885 | -0.02465 | 5449 ft | 264 kts | 91° |
| 2026-04-26 13:47 | 51.16817 | 0.00500 | 6359 ft | 270 kts | 92° |
| 2026-04-26 13:47 | 51.16756 | 0.03535 | 7212 ft | 277 kts | 92° |
| 2026-04-26 13:47 | 51.16702 | 0.06631 | 8128 ft | 281 kts | 92° |
| 2026-04-26 13:48 | 51.16649 | 0.09745 | 8972 ft | 287 kts | 92° |
| 2026-04-26 13:48 | 51.16611 | 0.11913 | 9523 ft | 293 kts | 92° |
| 2026-04-26 13:48 | 51.16534 | 0.16242 | 10701 ft | 297 kts | 92° |
| 2026-04-26 13:48 | 51.16519 | 0.18475 | 11291 ft | 299 kts | 91° |
| 2026-04-26 13:49 | 51.16537 | 0.22917 | 12317 ft | 307 kts | 90° |
| 2026-04-26 13:49 | 51.16558 | 0.26335 | 13176 ft | 310 kts | 90° |
| 2026-04-26 13:49 | 51.16570 | 0.28663 | 13754 ft | 312 kts | 90° |
| 2026-04-26 13:49 | 51.16581 | 0.32124 | 14475 ft | 317 kts | 90° |
| 2026-04-26 13:50 | 51.16588 | 0.35683 | 15210 ft | 321 kts | 91° |
| 2026-04-26 13:50 | 51.16591 | 0.39260 | 15918 ft | 325 kts | 91° |
| 2026-04-26 13:50 | 51.16591 | 0.42849 | 16611 ft | 330 kts | 91° |
| 2026-04-26 13:50 | 51.16588 | 0.46537 | 17301 ft | 334 kts | 92° |
| 2026-04-26 13:51 | 51.16583 | 0.50278 | 17932 ft | 342 kts | 91° |
| 2026-04-26 13:51 | 51.16579 | 0.54184 | 18151 ft | 362 kts | 91° |
| 2026-04-26 13:51 | 51.16577 | 0.58294 | 18351 ft | 380 kts | 91° |
| 2026-04-26 13:51 | 51.16576 | 0.62598 | 18670 ft | 394 kts | 91° |
| 2026-04-26 13:52 | 51.16573 | 0.66984 | 19242 ft | 398 kts | 91° |
| 2026-04-26 13:52 | 51.16567 | 0.71369 | 19844 ft | 401 kts | 91° |
| 2026-04-26 13:52 | 51.16558 | 0.75846 | 20428 ft | 405 kts | 91° |
| 2026-04-26 13:52 | 51.16547 | 0.80359 | 21014 ft | 409 kts | 91° |
| 2026-04-26 13:53 | 51.16535 | 0.84914 | 21589 ft | 413 kts | 91° |
| 2026-04-26 13:53 | 51.16519 | 0.89528 | 22144 ft | 417 kts | 91° |
| 2026-04-26 13:53 | 51.16502 | 0.94173 | 22717 ft | 421 kts | 91° |
| 2026-04-26 13:53 | 51.16482 | 0.98807 | 23021 ft | 423 kts | 90° |
| 2026-04-26 13:54 | 51.16460 | 1.03494 | 23126 ft | 422 kts | 90° |
| 2026-04-26 13:54 | 51.16437 | 1.08176 | 23242 ft | 423 kts | 91° |
| 2026-04-26 13:54 | 51.16412 | 1.12892 | 23320 ft | 424 kts | 91° |
| 2026-04-26 13:55 | 51.16357 | 1.22285 | 23320 ft | 424 kts | 91° |
| 2026-04-26 13:55 | 51.16337 | 1.25397 | 23323 ft | 424 kts | 91° |
| 2026-04-26 13:55 | 51.16241 | 1.36326 | 23323 ft | 424 kts | 94° |
| 2026-04-26 13:56 | 51.16014 | 1.41015 | 23320 ft | 424 kts | 95° |
| 2026-04-26 13:56 | 51.15787 | 1.45703 | 23322 ft | 423 kts | 94° |
| 2026-04-26 13:56 | 51.15566 | 1.50383 | 23321 ft | 423 kts | 94° |
| 2026-04-26 13:56 | 51.15344 | 1.55054 | 23323 ft | 423 kts | 94° |
| 2026-04-26 13:57 | 51.15118 | 1.59746 | 23322 ft | 423 kts | 94° |
| 2026-04-26 13:57 | 51.14890 | 1.64407 | 23322 ft | 423 kts | 95° |
| 2026-04-26 13:57 | 51.14660 | 1.69036 | 23322 ft | 423 kts | 95° |
| 2026-04-26 13:57 | 51.14426 | 1.73716 | 23323 ft | 423 kts | 95° |
| 2026-04-26 13:58 | 51.14191 | 1.78395 | 23322 ft | 423 kts | 95° |
| 2026-04-26 13:58 | 51.13953 | 1.83068 | 23316 ft | 423 kts | 95° |
| 2026-04-26 13:58 | 51.13714 | 1.87736 | 23318 ft | 423 kts | 95° |
| 2026-04-26 13:58 | 51.13472 | 1.92412 | 23320 ft | 424 kts | 95° |
| 2026-04-26 13:59 | 51.13230 | 1.97058 | 23318 ft | 425 kts | 95° |
| 2026-04-26 13:59 | 51.12984 | 2.01752 | 23319 ft | 424 kts | 95° |
| 2026-04-26 13:59 | 51.12736 | 2.06444 | 23319 ft | 425 kts | 95° |
| 2026-04-26 14:00 | 51.11983 | 2.20480 | 23318 ft | 425 kts | 95° |
| 2026-04-26 14:00 | 51.11726 | 2.25181 | 23318 ft | 425 kts | 95° |
| 2026-04-26 14:00 | 51.11556 | 2.28285 | 23316 ft | 425 kts | 95° |
| 2026-04-26 14:01 | 51.11213 | 2.34493 | 23317 ft | 425 kts | 95° |
| 2026-04-26 14:01 | 51.10952 | 2.39184 | 23314 ft | 425 kts | 95° |
| 2026-04-26 14:01 | 51.10688 | 2.43889 | 23311 ft | 426 kts | 95° |
| 2026-04-26 14:01 | 51.10422 | 2.48591 | 23308 ft | 426 kts | 95° |
| 2026-04-26 14:02 | 51.10158 | 2.53229 | 23308 ft | 426 kts | 95° |
| 2026-04-26 14:02 | 51.09889 | 2.57919 | 23310 ft | 426 kts | 95° |
| 2026-04-26 14:02 | 51.09612 | 2.62618 | 23308 ft | 426 kts | 96° |
| 2026-04-26 14:02 | 51.09091 | 2.67251 | 23306 ft | 426 kts | 104° |
| 2026-04-26 14:03 | 51.08276 | 2.71790 | 23306 ft | 426 kts | 106° |
| 2026-04-26 14:03 | 51.07450 | 2.76323 | 23306 ft | 426 kts | 106° |
| 2026-04-26 14:03 | 51.06630 | 2.80846 | 23306 ft | 426 kts | 106° |
| 2026-04-26 14:03 | 51.05821 | 2.85309 | 23322 ft | 426 kts | 106° |
| 2026-04-26 14:04 | 51.04997 | 2.89839 | 23316 ft | 427 kts | 106° |
| 2026-04-26 14:04 | 51.04171 | 2.94368 | 23315 ft | 426 kts | 106° |
| 2026-04-26 14:04 | 51.03342 | 2.98904 | 23314 ft | 427 kts | 106° |
| 2026-04-26 14:04 | 51.02512 | 3.03428 | 23312 ft | 427 kts | 106° |
| 2026-04-26 14:05 | 51.01679 | 3.07962 | 23307 ft | 427 kts | 106° |
| 2026-04-26 14:05 | 51.00843 | 3.12494 | 23305 ft | 427 kts | 106° |
| 2026-04-26 14:05 | 51.00007 | 3.17015 | 23302 ft | 427 kts | 106° |
| 2026-04-26 14:05 | 50.99181 | 3.21478 | 23300 ft | 427 kts | 106° |
| 2026-04-26 14:06 | 50.98340 | 3.26006 | 23296 ft | 426 kts | 106° |
| 2026-04-26 14:06 | 50.97496 | 3.30540 | 23296 ft | 427 kts | 106° |
| 2026-04-26 14:06 | 50.96652 | 3.35055 | 23294 ft | 427 kts | 106° |
| 2026-04-26 14:06 | 50.95804 | 3.39588 | 23290 ft | 427 kts | 106° |
| 2026-04-26 14:07 | 50.94970 | 3.44039 | 23287 ft | 426 kts | 106° |
| 2026-04-26 14:07 | 50.94121 | 3.48556 | 23287 ft | 427 kts | 106° |
| 2026-04-26 14:07 | 50.93268 | 3.53082 | 23287 ft | 427 kts | 106° |
| 2026-04-26 14:07 | 50.92418 | 3.57586 | 23287 ft | 426 kts | 106° |
| 2026-04-26 14:08 | 50.91564 | 3.62099 | 23291 ft | 427 kts | 106° |
| 2026-04-26 14:08 | 50.90706 | 3.66613 | 23291 ft | 427 kts | 106° |
| 2026-04-26 14:08 | 50.89840 | 3.71120 | 23286 ft | 427 kts | 107° |
| 2026-04-26 14:08 | 50.88979 | 3.75579 | 23287 ft | 427 kts | 107° |
| 2026-04-26 14:09 | 50.88106 | 3.80085 | 23292 ft | 427 kts | 106° |
| 2026-04-26 14:09 | 50.87232 | 3.84595 | 23291 ft | 428 kts | 106° |
| 2026-04-26 14:09 | 50.86359 | 3.89093 | 23295 ft | 427 kts | 107° |
| 2026-04-26 14:09 | 50.85494 | 3.93539 | 23291 ft | 427 kts | 107° |
| 2026-04-26 14:10 | 50.84615 | 3.98044 | 23298 ft | 427 kts | 107° |
| 2026-04-26 14:10 | 50.83738 | 4.02536 | 23299 ft | 427 kts | 107° |
| 2026-04-26 14:10 | 50.82856 | 4.07037 | 23294 ft | 427 kts | 107° |
| 2026-04-26 14:10 | 50.81973 | 4.11537 | 23288 ft | 427 kts | 107° |
| 2026-04-26 14:11 | 50.80202 | 4.20520 | 23292 ft | 427 kts | 107° |
| 2026-04-26 14:11 | 50.79327 | 4.24945 | 23289 ft | 425 kts | 107° |
| 2026-04-26 14:11 | 50.78442 | 4.29410 | 23294 ft | 426 kts | 107° |
| 2026-04-26 14:12 | 50.77549 | 4.33905 | 23295 ft | 426 kts | 107° |
| 2026-04-26 14:12 | 50.76660 | 4.38371 | 23290 ft | 426 kts | 107° |
| 2026-04-26 14:12 | 50.75782 | 4.42772 | 23297 ft | 426 kts | 107° |
| 2026-04-26 14:12 | 50.74884 | 4.47262 | 23292 ft | 426 kts | 107° |
| 2026-04-26 14:13 | 50.73101 | 4.56146 | 23295 ft | 426 kts | 107° |
| 2026-04-26 14:13 | 50.72200 | 4.60623 | 23291 ft | 426 kts | 107° |
| 2026-04-26 14:13 | 50.71318 | 4.65096 | 23290 ft | 426 kts | 106° |
| 2026-04-26 14:14 | 50.70462 | 4.69538 | 23286 ft | 427 kts | 106° |
| 2026-04-26 14:14 | 50.69600 | 4.74020 | 23291 ft | 427 kts | 106° |
| 2026-04-26 14:14 | 50.68736 | 4.78500 | 23285 ft | 427 kts | 106° |
| 2026-04-26 14:14 | 50.67866 | 4.82976 | 23282 ft | 427 kts | 106° |
| 2026-04-26 14:15 | 50.66990 | 4.87468 | 23287 ft | 427 kts | 106° |
| 2026-04-26 14:15 | 50.66113 | 4.91948 | 23285 ft | 427 kts | 106° |
| 2026-04-26 14:15 | 50.65230 | 4.96347 | 23286 ft | 427 kts | 107° |
| 2026-04-26 14:15 | 50.64310 | 5.00815 | 23285 ft | 427 kts | 107° |
| 2026-04-26 14:16 | 50.63390 | 5.05260 | 23283 ft | 427 kts | 107° |
| 2026-04-26 14:16 | 50.62465 | 5.09726 | 23284 ft | 427 kts | 107° |
| 2026-04-26 14:16 | 50.61554 | 5.14123 | 23294 ft | 427 kts | 107° |
| 2026-04-26 14:16 | 50.60632 | 5.18575 | 23288 ft | 428 kts | 107° |
| 2026-04-26 14:17 | 50.59708 | 5.23033 | 23278 ft | 427 kts | 107° |
| 2026-04-26 14:17 | 50.58785 | 5.27479 | 23281 ft | 427 kts | 107° |
| 2026-04-26 14:17 | 50.57861 | 5.31923 | 23281 ft | 427 kts | 107° |
| 2026-04-26 14:17 | 50.56932 | 5.36373 | 23275 ft | 427 kts | 107° |
| 2026-04-26 14:18 | 50.56002 | 5.40825 | 23271 ft | 428 kts | 107° |
| 2026-04-26 14:18 | 50.55081 | 5.45219 | 23271 ft | 427 kts | 107° |
| 2026-04-26 14:18 | 50.54147 | 5.49667 | 23274 ft | 427 kts | 107° |
| 2026-04-26 14:18 | 50.53213 | 5.54106 | 23273 ft | 428 kts | 107° |
| 2026-04-26 14:19 | 50.52357 | 5.58586 | 23269 ft | 426 kts | 99° |
| 2026-04-26 14:19 | 50.52120 | 5.63197 | 23268 ft | 421 kts | 84° |
| 2026-04-26 14:19 | 50.52594 | 5.67702 | 23270 ft | 417 kts | 70° |
| 2026-04-26 14:19 | 50.53506 | 5.72036 | 23268 ft | 417 kts | 69° |
| 2026-04-26 14:20 | 50.54412 | 5.76291 | 23201 ft | 415 kts | 69° |
| 2026-04-26 14:20 | 50.55325 | 5.80608 | 22715 ft | 416 kts | 69° |
| 2026-04-26 14:20 | 50.56241 | 5.84950 | 21941 ft | 419 kts | 69° |
| 2026-04-26 14:20 | 50.57162 | 5.89335 | 20983 ft | 425 kts | 69° |
| 2026-04-26 14:21 | 50.58089 | 5.93764 | 20294 ft | 424 kts | 70° |
| 2026-04-26 14:21 | 50.59002 | 5.98147 | 19730 ft | 418 kts | 70° |
| 2026-04-26 14:21 | 50.59903 | 6.02482 | 19162 ft | 414 kts | 70° |
| 2026-04-26 14:21 | 50.60795 | 6.06775 | 18611 ft | 409 kts | 70° |
| 2026-04-26 14:22 | 50.61667 | 6.10978 | 18005 ft | 405 kts | 70° |
| 2026-04-26 14:22 | 50.62532 | 6.15166 | 17473 ft | 399 kts | 70° |
| 2026-04-26 14:22 | 50.63236 | 6.19377 | 16930 ft | 395 kts | 79° |
| 2026-04-26 14:22 | 50.63484 | 6.23679 | 16386 ft | 391 kts | 89° |
| 2026-04-26 14:23 | 50.63327 | 6.27892 | 15857 ft | 388 kts | 94° |
| 2026-04-26 14:23 | 50.63108 | 6.32111 | 15315 ft | 384 kts | 94° |
| 2026-04-26 14:23 | 50.62900 | 6.36286 | 14794 ft | 381 kts | 94° |
| 2026-04-26 14:23 | 50.62690 | 6.40431 | 14268 ft | 377 kts | 93° |
| 2026-04-26 14:24 | 50.62478 | 6.44529 | 13710 ft | 374 kts | 93° |
| 2026-04-26 14:24 | 50.62264 | 6.48591 | 13188 ft | 370 kts | 94° |
| 2026-04-26 14:24 | 50.62052 | 6.52611 | 12676 ft | 365 kts | 93° |
| 2026-04-26 14:24 | 50.61840 | 6.56584 | 12170 ft | 361 kts | 93° |
| 2026-04-26 14:25 | 50.61632 | 6.60483 | 11673 ft | 358 kts | 93° |
| 2026-04-26 14:25 | 50.61423 | 6.64381 | 11172 ft | 354 kts | 93° |
| 2026-04-26 14:25 | 50.61215 | 6.68231 | 10703 ft | 351 kts | 93° |
| 2026-04-26 14:25 | 50.61012 | 6.71942 | 10552 ft | 337 kts | 93° |
| 2026-04-26 14:26 | 50.60894 | 6.75554 | 10425 ft | 322 kts | 86° |
| 2026-04-26 14:26 | 50.61103 | 6.78981 | 10307 ft | 307 kts | 80° |
| 2026-04-26 14:26 | 50.61364 | 6.82287 | 10062 ft | 300 kts | 80° |
| 2026-04-26 14:26 | 50.61612 | 6.85529 | 9652 ft | 298 kts | 81° |
| 2026-04-26 14:27 | 50.61859 | 6.88773 | 9244 ft | 296 kts | 81° |
| 2026-04-26 14:27 | 50.62095 | 6.91936 | 8877 ft | 293 kts | 81° |
| 2026-04-26 14:27 | 50.62330 | 6.95119 | 8510 ft | 290 kts | 81° |
| 2026-04-26 14:27 | 50.62560 | 6.98241 | 8282 ft | 283 kts | 81° |
| 2026-04-26 14:28 | 50.62781 | 7.01251 | 8187 ft | 271 kts | 81° |
| 2026-04-26 14:28 | 50.62994 | 7.04141 | 7853 ft | 270 kts | 81° |
| 2026-04-26 14:28 | 50.63216 | 7.07101 | 7448 ft | 271 kts | 81° |
| 2026-04-26 14:28 | 50.63437 | 7.10054 | 7115 ft | 270 kts | 81° |
| 2026-04-26 14:29 | 50.63634 | 7.12998 | 6782 ft | 269 kts | 85° |
| 2026-04-26 14:29 | 50.63565 | 7.15917 | 6449 ft | 269 kts | 93° |
| 2026-04-26 14:29 | 50.63414 | 7.18853 | 6118 ft | 268 kts | 93° |
| 2026-04-26 14:29 | 50.63264 | 7.21772 | 5741 ft | 267 kts | 93° |
| 2026-04-26 14:30 | 50.63120 | 7.24683 | 5433 ft | 265 kts | 93° |
| 2026-04-26 14:30 | 50.62993 | 7.27565 | 5074 ft | 264 kts | 89° |
| 2026-04-26 14:30 | 50.63364 | 7.30295 | 4855 ft | 253 kts | 64° |
| 2026-04-26 14:30 | 50.64085 | 7.32766 | 4740 ft | 242 kts | 63° |
| 2026-04-26 14:31 | 50.64789 | 7.35111 | 4661 ft | 230 kts | 63° |
| 2026-04-26 14:31 | 50.65474 | 7.37306 | 4568 ft | 218 kts | 58° |
| 2026-04-26 14:31 | 50.66464 | 7.39019 | 4371 ft | 210 kts | 35° |
| 2026-04-26 14:31 | 50.67724 | 7.40115 | 4120 ft | 204 kts | 7° |
| 2026-04-26 14:32 | 50.69089 | 7.39749 | 4052 ft | 210 kts | 333° |
| 2026-04-26 14:32 | 50.70298 | 7.38481 | 3959 ft | 206 kts | 321° |
| 2026-04-26 14:32 | 50.71377 | 7.36985 | 3855 ft | 206 kts | 317° |
| 2026-04-26 14:32 | 50.72439 | 7.35450 | 3784 ft | 207 kts | 318° |
| 2026-04-26 14:33 | 50.73491 | 7.33943 | 3594 ft | 203 kts | 319° |
| 2026-04-26 14:33 | 50.74515 | 7.32466 | 3318 ft | 196 kts | 318° |
| 2026-04-26 14:33 | 50.75500 | 7.31041 | 3051 ft | 187 kts | 318° |
| 2026-04-26 14:33 | 50.76446 | 7.29688 | 2810 ft | 181 kts | 318° |
| 2026-04-26 14:34 | 50.77382 | 7.28330 | 2583 ft | 181 kts | 319° |
| 2026-04-26 14:34 | 50.78305 | 7.26994 | 2323 ft | 181 kts | 317° |
| 2026-04-26 14:34 | 50.78922 | 7.26101 | 2168 ft | 181 kts | 318° |
| 2026-04-26 14:34 | 50.80147 | 7.24342 | 1822 ft | 174 kts | 319° |
| 2026-04-26 14:35 | 50.80716 | 7.23517 | 1693 ft | 160 kts | 318° |
| 2026-04-26 14:35 | 50.81764 | 7.22003 | 1385 ft | 141 kts | 318° |
| 2026-04-26 14:35 | 50.82230 | 7.21327 | 1266 ft | 136 kts | 317° |
| 2026-04-26 14:35 | 50.83146 | 7.20003 | 1026 ft | 132 kts | 318° |
| 2026-04-26 14:36 | 50.83596 | 7.19351 | 912 ft | 132 kts | 318° |
| 2026-04-26 14:36 | 50.84267 | 7.18388 | 694 ft | 130 kts | 317° |
| 2026-04-26 14:36 | 50.84950 | 7.17407 | 564 ft | 134 kts | 317° |
| 2026-04-26 14:36 | 50.85629 | 7.16418 | 387 ft | 130 kts | 317° |
| 2026-04-26 14:37 | 50.86279 | 7.15466 | 271 ft | 126 kts | 316° |
| 2026-04-26 14:37 | 50.86755 | 7.14777 | 258 ft | 36 kts | 318° |
| 2026-04-26 14:37 | 50.86866 | 7.14480 | 256 ft | 28 kts | 282° |
| 2026-04-26 14:37 | 50.86879 | 7.14382 | 258 ft | 3 kts | 280° |
| 2026-04-26 14:38 | 50.86885 | 7.14330 | 259 ft | 4 kts | 280° |
| 2026-04-26 14:38 | 50.86891 | 7.14272 | 257 ft | 1 kts | 280° |
| 2026-04-26 14:38 | 50.86898 | 7.14216 | 255 ft | 10 kts | 281° |
| 2026-04-26 14:38 | 50.86917 | 7.14074 | 251 ft | 16 kts | 281° |
| 2026-04-26 14:39 | 50.86944 | 7.13909 | 243 ft | 19 kts | 300° |
| 2026-04-26 14:39 | 50.87043 | 7.13756 | 242 ft | 21 kts | 315° |
| 2026-04-26 14:39 | 50.87141 | 7.13608 | 239 ft | 21 kts | 316° |
| 2026-04-26 14:39 | 50.87249 | 7.13448 | 242 ft | 21 kts | 319° |
| 2026-04-26 14:40 | 50.87357 | 7.13296 | 233 ft | 20 kts | 317° |
| 2026-04-26 14:40 | 50.87464 | 7.13139 | 232 ft | 19 kts | 317° |
| 2026-04-26 14:40 | 50.87568 | 7.12989 | 230 ft | 18 kts | 317° |
| 2026-04-26 14:40 | 50.87643 | 7.12877 | 230 ft | 11 kts | 316° |
| 2026-04-26 14:41 | 50.87707 | 7.12785 | 230 ft | 13 kts | 318° |
| 2026-04-26 14:41 | 50.87781 | 7.12680 | 230 ft | 15 kts | 318° |
| 2026-04-26 14:41 | 50.87842 | 7.12613 | 230 ft | 10 kts | 344° |
| 2026-04-26 14:41 | 50.87913 | 7.12608 | 230 ft | 10 kts | 344° |
| 2026-04-26 14:42 | 50.87972 | 7.12537 | 230 ft | 10 kts | 319° |
| 2026-04-26 14:42 | 50.87973 | 7.12455 | 232 ft | 8 kts | 247° |
| 2026-04-26 14:42 | 50.87969 | 7.12439 | 231 ft | 2 kts | 247° |
| 2026-04-26 14:42 | 50.87968 | 7.12435 | 231 ft | 0 kts | 247° |